Accueil
METAR-TAF:

METAR-TAF

Aéroports :

Aéroport de Roberval

Roberval, Québec, Canada

latitude: 48-31N, longitude: 072-16W, altitude: 179 m

Observation

Le bulletin a été fait il y a 16 minutes, à 12:00 UTC
Vent 5 kt de ouest/sud-ouest
Température 5°C
Humidité 60%
Pression 1019 hPa
Visibilité: 64.4 km
Ciel couvert à une hauteur de 5300 ft

METAR: CYRJ 011200Z 25005KT 40SM OVC053 05/M02 A3009 RMK SC8 SLP199

Heure: 08:16 (12:16 UTC)

Prévision

Le bulletin a été fait il y a 45 minutes, à 11:31 UTC
Prévision valable du 01 à 12 UTC au 01 à 24 UTC
Vent 5 kt de ouest/sud-ouest
Visibilité: 10 km
Nuages fragmentés à une hauteur de 6000 ft
Evoluant progressivement
du 01 à 14 UTC au 01 à 16 UTC
Vent 5 kt de nord/nord-ouest

TAF: CYRJ 011131Z 0112/0124 24005KT P6SM BKN060 BECMG 0114/0116 33005KT RMK NXT FCST BY 011400Z

Observations et prévisions météorologiques de plus de 4000 aéroports (messages METAR et TAF).

Les stations disponibles sont représentées par des disques jaunes et rouges sur la carte.

Passer la souris dessus pour voir le nom de la station.

Cliquer dessus pour voir les observations et prévisions météorologiques.

Pour changer de carte: cliquez sur les boutons verts avec une croix noire pour zoomer, sur le bouton vert avec un tiret pour effectuer un zoom arrière, ou sur les flèches vertes pour les cartes adjacentes.


METAR-TAF: